Time;durP1;ratioP1;P1;durP2;ratioP2;P2;SDS_P1;SDS_P2;PMS_P1;PMS_P2;Temp;Humidity;BMP_temperature;BMP_pressure;BME280_temperature;BME280_humidity;BME280_pressure;Samples;Min_cycle;Max_cycle;Signal;HPM_P1;HPM_P2
2023/09/29 00:01:39;;;;;;;;;;;;;;;16.40;87.80;101493.53;5092061;28;1254;-77
2023/09/29 00:04:06;;;;;;;;;;;;;;;16.36;87.81;101492.16;5089167;28;1575;-77
2023/09/29 00:06:34;;;;;;;;;;;;;;;16.35;88.21;101485.28;5091688;28;1377;-77
2023/09/29 00:09:00;;;;;;;;;;;;;;;16.35;88.16;101479.22;5085431;28;1361;-77
2023/09/29 00:11:26;;;;;;;;;;;;;;;16.35;87.80;101484.47;5077414;28;1897;-77
2023/09/29 00:13:51;;;;;;;;;;;;;;;16.35;88.16;101480.06;5083587;28;1579;-77
2023/09/29 00:16:16;;;;;;;;;;;;;;;16.35;88.18;101480.06;5091742;28;1170;-78
2023/09/29 00:18:42;;;;;;;;;;;;;;;16.35;88.39;101472.19;5081377;28;1191;-77
2023/09/29 00:21:07;;;;;;;;;;;;;;;16.35;88.07;101474.81;5088395;28;1306;-77
2023/09/29 00:23:32;;;;;;;;;;;;;;;16.34;88.18;101481.00;5085416;28;1078;-77
2023/09/29 00:25:57;;;;;;;;;;;;;;;16.35;88.26;101490.53;5084005;28;1065;-77
2023/09/29 00:28:23;;;;;;;;;;;;;;;16.35;88.18;101485.28;5091681;28;1239;-77
2023/09/29 00:30:48;;;;;;;;;;;;;;;16.35;88.51;101480.06;5082655;28;1957;-77
2023/09/29 00:33:13;;;;;;;;;;;;;;;16.35;88.43;101474.81;5087191;28;1095;-77
2023/09/29 00:35:38;;;;;;;;;;;;;;;16.35;88.43;101480.06;5079425;28;1386;-77
2023/09/29 00:38:03;;;;;;;;;;;;;;;16.32;88.78;101475.09;5085338;28;1266;-77
2023/09/29 00:40:29;;;;;;;;;;;;;;;16.30;88.87;101471.81;5077452;28;1259;-77
2023/09/29 00:42:54;;;;;;;;;;;;;;;16.29;88.60;101471.97;5088385;28;1163;-77
2023/09/29 00:45:23;;;;;;;;;;;;;;;16.29;89.11;101470.16;5085953;28;1356;-77
2023/09/29 00:47:50;;;;;;;;;;;;;;;16.27;88.62;101466.84;5081443;28;1218;-77
2023/09/29 00:50:15;;;;;;;;;;;;;;;16.27;88.96;101461.63;5082925;28;1898;-77
2023/09/29 00:52:42;;;;;;;;;;;;;;;16.27;89.26;101477.31;5086539;28;1148;-77
2023/09/29 00:55:11;;;;;;;;;;;;;;;16.28;89.49;101473.72;5081777;28;1404;-77
2023/09/29 00:57:37;;;;;;;;;;;;;;;16.28;89.40;101471.13;5086431;28;955;-76
2023/09/29 01:00:07;;;;;;;;;;;;;;;16.28;89.64;101467.69;5087886;28;1216;-77
2023/09/29 01:02:32;;;;;;;;;;;;;;;16.29;89.75;101459.69;5092622;28;1285;-77
2023/09/29 01:04:57;;;;;;;;;;;;;;;16.28;89.92;101460.66;5082725;28;1290;-77
2023/09/29 01:07:23;;;;;;;;;;;;;;;16.28;89.71;101457.22;5085878;28;1268;-77
2023/09/29 01:09:48;;;;;;;;;;;;;;;16.29;90.22;101454.47;5089408;28;1974;-77
2023/09/29 01:12:29;;;;;;;;;;;;;;;16.28;90.09;101458.03;5086702;28;1237;-77
2023/09/29 01:14:54;;;;;;;;;;;;;;;16.26;90.29;101454.75;5092273;28;1428;-77
2023/09/29 01:17:20;;;;;;;;;;;;;;;16.29;90.29;101451.84;5077124;28;1206;-77
2023/09/29 01:19:48;;;;;;;;;;;;;;;16.29;90.26;101444.00;5082414;28;1174;-77
2023/09/29 01:22:13;;;;;;;;;;;;;;;16.29;90.16;101430.91;5089208;28;1416;-77
2023/09/29 01:24:38;;;;;;;;;;;;;;;16.29;90.28;101433.53;5086555;28;1354;-77
2023/09/29 01:27:03;;;;;;;;;;;;;;;16.29;90.95;101433.53;5088803;28;1312;-76
2023/09/29 01:29:29;;;;;;;;;;;;;;;16.30;90.58;101424.69;5086458;28;1975;-77
2023/09/29 01:31:54;;;;;;;;;;;;;;;16.29;90.58;101417.81;5079299;28;1279;-78
2023/09/29 01:34:20;;;;;;;;;;;;;;;16.30;90.54;101418.63;5080153;28;930;-77
2023/09/29 01:36:45;;;;;;;;;;;;;;;16.29;90.93;101412.59;5078413;28;1154;-77
2023/09/29 01:39:11;;;;;;;;;;;;;;;16.29;91.09;101412.59;5081544;28;1384;-77
2023/09/29 01:41:36;;;;;;;;;;;;;;;16.29;90.90;101417.81;5080668;28;1204;-77
2023/09/29 01:44:02;;;;;;;;;;;;;;;16.30;91.13;101406.38;5084069;28;1258;-78
2023/09/29 01:46:29;;;;;;;;;;;;;;;16.31;91.53;101389.69;5087012;28;1364;-77
2023/09/29 01:48:54;;;;;;;;;;;;;;;16.33;91.55;101394.78;5083994;28;1262;-77
2023/09/29 01:51:19;;;;;;;;;;;;;;;16.33;91.28;101395.59;5090457;28;2099;-76
2023/09/29 01:53:48;;;;;;;;;;;;;;;16.34;91.16;101378.91;5083103;28;1354;-77
2023/09/29 01:56:17;;;;;;;;;;;;;;;16.36;91.13;101392.69;5085574;28;1333;-77
2023/09/29 01:58:44;;;;;;;;;;;;;;;16.36;91.51;101392.69;5088332;28;1242;-77
2023/09/29 02:01:09;;;;;;;;;;;;;;;16.38;91.12;101385.50;5081401;28;1191;-77
2023/09/29 02:03:35;;;;;;;;;;;;;;;16.38;91.18;101385.50;5085959;28;1274;-77
2023/09/29 02:06:02;;;;;;;;;;;;;;;16.39;91.33;101376.66;5090615;28;1277;-77
2023/09/29 02:08:27;;;;;;;;;;;;;;;16.38;91.27;101377.63;5095861;28;1269;-77
2023/09/29 02:10:52;;;;;;;;;;;;;;;16.39;91.31;101376.66;5091635;28;1885;-77
2023/09/29 02:13:18;;;;;;;;;;;;;;;16.40;91.23;101374.88;5082074;28;1290;-77
2023/09/29 02:15:43;;;;;;;;;;;;;;;16.39;91.31;101376.66;5088965;28;1258;-77
2023/09/29 02:18:09;;;;;;;;;;;;;;;16.39;91.01;101374.03;5094283;28;1253;-77
2023/09/29 02:20:36;;;;;;;;;;;;;;;16.40;91.32;101372.25;5090182;28;1235;-77
2023/09/29 02:23:02;;;;;;;;;;;;;;;16.39;91.13;101381.91;5091998;28;1164;-77
2023/09/29 02:25:28;;;;;;;;;;;;;;;16.39;91.13;101371.44;5084069;28;1233;-77
2023/09/29 02:27:54;;;;;;;;;;;;;;;16.39;90.92;101366.19;5077283;28;1202;-77
2023/09/29 02:30:21;;;;;;;;;;;;;;;16.39;91.08;101381.91;5085707;28;1906;-78
2023/09/29 02:32:46;;;;;;;;;;;;;;;16.40;91.10;101378.34;5079832;28;1438;-77
2023/09/29 02:35:12;;;;;;;;;;;;;;;16.41;90.96;101374.75;5084518;28;1217;-77
2023/09/29 02:37:37;;;;;;;;;;;;;;;16.42;91.25;101370.31;5088724;28;1204;-77
2023/09/29 02:40:07;;;;;;;;;;;;;;;16.41;90.95;101369.50;5083764;28;1194;-77
2023/09/29 02:42:32;;;;;;;;;;;;;;;16.41;91.15;101371.31;5083373;28;959;-77
2023/09/29 02:44:58;;;;;;;;;;;;;;;16.41;91.16;101359.03;5088093;28;1242;-77
2023/09/29 02:47:23;;;;;;;;;;;;;;;16.41;91.16;101364.25;5091539;28;1221;-77
2023/09/29 02:49:48;;;;;;;;;;;;;;;16.42;91.06;101358.06;5090722;28;1893;-77
2023/09/29 02:52:13;;;;;;;;;;;;;;;16.41;91.20;101356.41;5087583;28;1390;-77
2023/09/29 02:54:39;;;;;;;;;;;;;;;16.41;91.07;101359.03;5090469;28;1287;-77
2023/09/29 02:57:04;;;;;;;;;;;;;;;16.40;91.04;101349.53;5084555;28;1447;-77
2023/09/29 02:59:31;;;;;;;;;;;;;;;16.41;90.97;101343.31;5081467;28;1218;-76
2023/09/29 03:01:57;;;;;;;;;;;;;;;16.41;90.81;101343.31;5081981;28;1230;-77
2023/09/29 03:04:22;;;;;;;;;;;;;;;16.40;90.89;101346.91;5085564;28;1101;-77
2023/09/29 03:06:47;;;;;;;;;;;;;;;16.41;90.79;101338.09;5084911;28;1068;-77
2023/09/29 03:09:13;;;;;;;;;;;;;;;16.41;91.31;101332.84;5085998;28;1117;-77
2023/09/29 03:11:40;;;;;;;;;;;;;;;16.41;91.28;101338.09;5083734;28;1905;-77
2023/09/29 03:14:06;;;;;;;;;;;;;;;16.41;91.25;101338.09;5086776;28;1171;-77
2023/09/29 03:16:32;;;;;;;;;;;;;;;16.42;90.91;101329.25;5090779;28;1205;-77
2023/09/29 03:18:57;;;;;;;;;;;;;;;16.42;90.98;101339.72;5082295;28;1372;-77
2023/09/29 03:21:22;;;;;;;;;;;;;;;16.41;91.23;101327.59;5083518;28;1214;-77
2023/09/29 03:23:47;;;;;;;;;;;;;;;16.42;91.29;101326.63;5087384;28;1221;-77
2023/09/29 03:26:22;;;;;;;;;;;;;;;16.43;91.08;101319.59;5098026;28;1399;-78
2023/09/29 03:28:47;;;;;;;;;;;;;;;16.42;91.25;101315.34;5084267;28;1337;-77
2023/09/29 03:31:12;;;;;;;;;;;;;;;16.42;91.27;101313.53;5086354;28;1951;-77
2023/09/29 03:33:38;;;;;;;;;;;;;;;16.43;91.03;101302.09;5087753;28;1254;-77
2023/09/29 03:36:03;;;;;;;;;;;;;;;16.43;91.48;101294.25;5094462;28;1227;-77
2023/09/29 03:38:29;;;;;;;;;;;;;;;16.41;91.20;101306.66;5094427;28;1552;-78
2023/09/29 03:40:56;;;;;;;;;;;;;;;16.41;91.33;101306.66;5096596;28;1081;-77
2023/09/29 03:43:23;;;;;;;;;;;;;;;16.42;91.46;101295.22;5092429;28;1095;-78
2023/09/29 03:45:49;;;;;;;;;;;;;;;16.38;91.08;101288.63;5091491;28;1210;-77
2023/09/29 03:48:15;;;;;;;;;;;;;;;16.40;91.62;101289.31;5089073;28;1178;-77
2023/09/29 03:50:41;;;;;;;;;;;;;;;16.39;91.61;101281.59;5089685;28;1886;-77
2023/09/29 03:53:06;;;;;;;;;;;;;;;16.41;91.88;101285.72;5083810;28;1267;-77
2023/09/29 03:55:31;;;;;;;;;;;;;;;16.42;91.27;101279.50;5089879;28;1231;-76
2023/09/29 03:57:56;;;;;;;;;;;;;;;16.41;91.56;101280.50;5085844;28;1136;-77
2023/09/29 04:00:22;;;;;;;;;;;;;;;16.42;91.49;101276.88;5077589;28;1318;-77
2023/09/29 04:02:50;;;;;;;;;;;;;;;16.41;91.61;101264.78;5089714;28;1347;-77
2023/09/29 04:05:16;;;;;;;;;;;;;;;16.43;91.95;101272.47;5085009;28;998;-77
2023/09/29 04:07:41;;;;;;;;;;;;;;;16.43;91.74;101273.28;5081206;28;1418;-77
2023/09/29 04:10:08;;;;;;;;;;;;;;;16.43;92.17;101251.53;5079307;28;1917;-77
2023/09/29 04:12:34;;;;;;;;;;;;;;;16.43;92.22;101265.44;5081409;28;1143;-77
2023/09/29 04:14:59;;;;;;;;;;;;;;;16.44;91.74;101261.84;5082569;28;1287;-77
2023/09/29 04:17:24;;;;;;;;;;;;;;;16.44;91.87;101256.59;5080655;28;1486;-77
2023/09/29 04:19:50;;;;;;;;;;;;;;;16.45;92.30;101255.63;5077620;28;1096;-76
2023/09/29 04:22:15;;;;;;;;;;;;;;;16.48;92.27;101258.94;5087847;28;1190;-77
2023/09/29 04:24:40;;;;;;;;;;;;;;;16.48;92.43;101254.50;5087406;28;1126;-77
2023/09/29 04:27:05;;;;;;;;;;;;;;;16.50;92.50;101251.72;5083932;28;1262;-77
2023/09/29 04:29:30;;;;;;;;;;;;;;;16.52;92.27;101247.19;5081011;28;1922;-77
2023/09/29 04:31:56;;;;;;;;;;;;;;;16.52;92.59;101244.56;5088133;28;1278;-78
2023/09/29 04:34:21;;;;;;;;;;;;;;;16.55;92.26;101254.72;5090932;28;1166;-76
2023/09/29 04:36:46;;;;;;;;;;;;;;;16.55;92.84;101239.00;5089264;28;1178;-78
2023/09/29 04:39:11;;;;;;;;;;;;;;;16.56;93.41;101235.41;5089057;28;1576;-77
2023/09/29 04:41:37;;;;;;;;;;;;;;;16.58;92.48;101244.78;5089991;28;1219;-77
2023/09/29 04:44:04;;;;;;;;;;;;;;;16.58;92.73;101233.47;5084037;28;1215;-78
2023/09/29 04:46:29;;;;;;;;;;;;;;;16.59;93.27;101235.13;5089181;28;1017;-77
2023/09/29 04:48:54;;;;;;;;;;;;;;;16.60;93.24;101228.88;5094532;28;1298;-78
2023/09/29 04:51:20;;;;;;;;;;;;;;;16.61;93.21;101230.53;5084381;28;1917;-78
2023/09/29 04:53:45;;;;;;;;;;;;;;;16.62;93.26;101229.53;5077939;28;1318;-77
2023/09/29 04:56:10;;;;;;;;;;;;;;;16.64;93.29;101232.84;5086678;28;1150;-77
2023/09/29 04:58:35;;;;;;;;;;;;;;;16.65;93.25;101240.56;5094511;28;1268;-77
2023/09/29 05:01:01;;;;;;;;;;;;;;;16.64;93.13;101232.84;5086848;28;1522;-77
2023/09/29 05:03:27;;;;;;;;;;;;;;;16.65;93.70;101234.50;5080898;28;1208;-77
2023/09/29 05:05:52;;;;;;;;;;;;;;;16.68;94.04;101228.94;5081590;28;1422;-77
2023/09/29 05:08:17;;;;;;;;;;;;;;;16.68;93.74;101221.06;5084525;28;1296;-78
2023/09/29 05:10:43;;;;;;;;;;;;;;;16.71;93.71;101228.66;5085860;28;1897;-77
2023/09/29 05:13:09;;;;;;;;;;;;;;;16.74;94.25;101217.84;5082535;28;1090;-77
2023/09/29 05:15:36;;;;;;;;;;;;;;;16.75;93.87;101222.16;5088793;28;1181;-77
2023/09/29 05:18:01;;;;;;;;;;;;;;;16.78;93.83;101219.19;5087835;28;1300;-76
2023/09/29 05:20:27;;;;;;;;;;;;;;;16.80;93.83;101209.38;5085104;28;1159;-77
2023/09/29 05:22:52;;;;;;;;;;;;;;;16.82;94.22;101210.06;5088950;28;1081;-76
2023/09/29 05:25:17;;;;;;;;;;;;;;;16.84;94.34;101215.94;5092216;28;993;-78
2023/09/29 05:27:42;;;;;;;;;;;;;;;16.88;94.05;101219.91;5090834;28;1071;-78
2023/09/29 05:30:08;;;;;;;;;;;;;;;16.89;94.33;101226.78;5080587;28;2455;-77
2023/09/29 05:32:33;;;;;;;;;;;;;;;16.91;94.24;101224.81;5081455;28;1301;-77
2023/09/29 05:34:58;;;;;;;;;;;;;;;16.92;94.60;101226.50;5076066;28;1236;-77
2023/09/29 05:37:23;;;;;;;;;;;;;;;16.93;94.73;101233.38;5083041;28;1328;-78
2023/09/29 05:39:49;;;;;;;;;;;;;;;16.94;94.89;101224.53;5086274;28;1286;-78
2023/09/29 05:42:14;;;;;;;;;;;;;;;16.95;94.75;101231.41;5089043;28;1158;-77
2023/09/29 05:44:39;;;;;;;;;;;;;;;16.98;95.01;101227.66;5083127;28;1448;-77
2023/09/29 05:47:04;;;;;;;;;;;;;;;16.99;95.15;101222.25;5083800;28;1122;-77
2023/09/29 05:49:30;;;;;;;;;;;;;;;17.02;95.08;101228.16;5088384;28;1905;-77
2023/09/29 05:51:55;;;;;;;;;;;;;;;17.03;94.42;101216.69;5085292;28;1365;-77
2023/09/29 05:54:21;;;;;;;;;;;;;;;17.03;95.44;101212.25;5080595;28;1350;-78
2023/09/29 05:56:46;;;;;;;;;;;;;;;17.05;94.90;101205.09;5087281;28;1198;-78
2023/09/29 05:59:11;;;;;;;;;;;;;;;17.06;95.24;101208.53;5087013;28;1294;-78
2023/09/29 06:01:36;;;;;;;;;;;;;;;17.08;94.88;101211.78;5077252;28;1251;-78
2023/09/29 06:04:01;;;;;;;;;;;;;;;17.11;96.24;101212.31;5090302;28;1239;-78
2023/09/29 06:06:27;;;;;;;;;;;;;;;17.13;96.09;101212.97;5088788;28;1214;-77
2023/09/29 06:08:52;;;;;;;;;;;;;;;17.17;95.83;101213.47;5082294;28;1314;-77
2023/09/29 06:11:17;;;;;;;;;;;;;;;17.18;96.10;101220.34;5082969;28;1889;-78
2023/09/29 06:13:42;;;;;;;;;;;;;;;17.21;95.86;101220.88;5083296;28;1400;-78
2023/09/29 06:16:08;;;;;;;;;;;;;;;17.23;95.85;101223.31;5079808;28;1516;-78
2023/09/29 06:18:33;;;;;;;;;;;;;;;17.24;95.84;101230.22;5083355;28;1441;-78
2023/09/29 06:20:58;;;;;;;;;;;;;;;17.27;96.13;101218.59;5079348;28;1259;-78
2023/09/29 06:23:23;;;;;;;;;;;;;;;17.29;96.24;101230.56;5087925;28;1186;-78
2023/09/29 06:26:01;;;;;;;;;;;;;;;17.30;96.55;101232.19;5081027;28;1287;-78
2023/09/29 06:28:27;;;;;;;;;;;;;;;17.31;96.09;101225.97;5086836;28;1203;-78
2023/09/29 06:30:53;;;;;;;;;;;;;;;17.34;95.53;101220.41;5081360;28;1959;-78
2023/09/29 06:33:19;;;;;;;;;;;;;;;17.35;97.11;101222.06;5080255;28;1185;-79
2023/09/29 06:35:44;;;;;;;;;;;;;;;17.36;96.00;101223.69;5080678;28;1508;-79
2023/09/29 06:38:09;;;;;;;;;;;;;;;17.37;96.78;101230.56;5080629;28;1396;-78
2023/09/29 06:40:34;;;;;;;;;;;;;;;17.40;96.75;101235.50;5081828;28;1195;-78
2023/09/29 06:43:00;;;;;;;;;;;;;;;17.40;96.54;101240.75;5086254;28;1295;-78
2023/09/29 06:45:29;;;;;;;;;;;;;;;17.43;96.53;101235.19;5082802;28;1394;-79
2023/09/29 06:47:54;;;;;;;;;;;;;;;17.44;96.67;101242.09;5083741;28;1242;-78
2023/09/29 06:50:20;;;;;;;;;;;;;;;17.47;96.56;101247.00;5076205;28;1963;-78
2023/09/29 06:52:45;;;;;;;;;;;;;;;17.48;96.77;101248.63;5078388;28;1318;-78
2023/09/29 06:55:12;;;;;;;;;;;;;;;17.49;97.00;101245.06;5085397;28;1262;-78
2023/09/29 06:57:37;;;;;;;;;;;;;;;17.51;96.95;101237.00;5088847;28;1155;-79
2023/09/29 07:00:06;;;;;;;;;;;;;;;17.51;96.96;101237.84;5083782;28;1321;-79
2023/09/29 07:02:31;;;;;;;;;;;;;;;17.53;97.17;101235.03;5084043;28;1218;-78
2023/09/29 07:04:57;;;;;;;;;;;;;;;17.55;96.88;101229.63;5085263;28;1196;-78
2023/09/29 07:07:22;;;;;;;;;;;;;;;17.57;97.08;101238.19;5089767;28;1253;-78
2023/09/29 07:09:47;;;;;;;;;;;;;;;17.60;97.07;101240.47;5097457;28;1905;-78
2023/09/29 07:12:12;;;;;;;;;;;;;;;17.63;96.91;101242.78;5088639;28;1118;-78
2023/09/29 07:14:37;;;;;;;;;;;;;;;17.65;97.23;101243.44;5090233;28;1211;-78
2023/09/29 07:17:03;;;;;;;;;;;;;;;17.69;97.32;101250.00;5094814;28;1289;-78
2023/09/29 07:19:28;;;;;;;;;;;;;;;17.73;97.21;101240.88;5085101;28;1709;-78
2023/09/29 07:21:53;;;;;;;;;;;;;;;17.76;97.15;101246.59;5082118;28;1321;-79
2023/09/29 07:24:18;;;;;;;;;;;;;;;17.81;97.24;101243.50;5090209;28;1265;-78
2023/09/29 07:26:43;;;;;;;;;;;;;;;17.85;96.98;101239.56;5088975;28;1300;-78
2023/09/29 07:29:08;;;;;;;;;;;;;;;17.89;96.94;101246.13;5084873;28;1239;-79
2023/09/29 07:31:35;;;;;;;;;;;;;;;17.94;97.15;101250.88;5084310;28;2005;-77
2023/09/29 07:34:00;;;;;;;;;;;;;;;17.97;97.37;101246.13;5087279;28;1249;-79
2023/09/29 07:36:29;;;;;;;;;;;;;;;18.02;96.43;101256.97;5082314;28;1250;-78
2023/09/29 07:38:54;;;;;;;;;;;;;;;18.04;97.00;101255.00;5083378;28;1242;-78
2023/09/29 07:41:19;;;;;;;;;;;;;;;18.09;97.23;101257.13;5081882;28;1322;-79
2023/09/29 07:43:44;;;;;;;;;;;;;;;18.13;96.90;101247.94;5084987;28;1246;-78
2023/09/29 07:46:09;;;;;;;;;;;;;;;18.16;97.02;101250.22;5077167;28;1144;-78
2023/09/29 07:48:35;;;;;;;;;;;;;;;18.22;97.74;101252.19;5080154;28;1318;-78
2023/09/29 07:51:00;;;;;;;;;;;;;;;18.26;96.95;101253.53;5075649;28;1957;-78
2023/09/29 07:53:25;;;;;;;;;;;;;;;18.31;96.76;101255.66;5078631;28;1242;-78
2023/09/29 07:55:50;;;;;;;;;;;;;;;18.36;97.04;101255.16;5079282;28;1180;-78
2023/09/29 07:58:15;;;;;;;;;;;;;;;18.41;97.16;101260.72;5088346;28;1225;-79
2023/09/29 08:00:40;;;;;;;;;;;;;;;18.45;97.30;101262.84;5085374;28;1202;-77
2023/09/29 08:03:06;;;;;;;;;;;;;;;18.51;96.85;101256.94;5088702;28;1198;-78
2023/09/29 08:05:31;;;;;;;;;;;;;;;18.57;96.96;101260.69;5088238;28;1268;-78
2023/09/29 08:07:56;;;;;;;;;;;;;;;18.63;96.79;101256.59;5090949;28;1214;-77
2023/09/29 08:10:21;;;;;;;;;;;;;;;18.70;96.47;101265.50;5080240;28;1898;-78
2023/09/29 08:12:46;;;;;;;;;;;;;;;18.75;96.77;101269.25;5088874;28;1222;-78
2023/09/29 08:15:13;;;;;;;;;;;;;;;18.81;96.77;101263.34;5089074;28;1227;-78
2023/09/29 08:17:38;;;;;;;;;;;;;;;18.90;96.63;101261.47;5088233;28;1353;-78
2023/09/29 08:20:06;;;;;;;;;;;;;;;18.99;96.06;101264.94;5085114;28;1094;-78
2023/09/29 08:22:31;;;;;;;;;;;;;;;19.08;95.93;101259.44;5092093;28;1353;-78
2023/09/29 08:24:56;;;;;;;;;;;;;;;19.15;96.19;101274.53;5088899;28;1145;-78
2023/09/29 08:27:21;;;;;;;;;;;;;;;19.23;96.16;101272.72;5083527;28;1253;-78
2023/09/29 08:29:46;;;;;;;;;;;;;;;19.31;96.13;101277.09;5091290;28;1969;-78
2023/09/29 08:32:12;;;;;;;;;;;;;;;19.36;95.68;101282.69;5076718;28;1504;-79
2023/09/29 08:34:38;;;;;;;;;;;;;;;19.44;94.87;101282.66;5076613;28;1203;-78
2023/09/29 08:37:04;;;;;;;;;;;;;;;19.46;95.09;101291.19;5081183;28;1240;-78
2023/09/29 08:39:29;;;;;;;;;;;;;;;19.47;95.02;101287.56;5085479;28;1301;-78
2023/09/29 08:42:03;;;;;;;;;;;;;;;19.51;94.81;101296.75;5081462;28;1250;-78
2023/09/29 08:44:28;;;;;;;;;;;;;;;19.54;94.87;101293.75;5089310;28;1520;-78
2023/09/29 08:46:55;;;;;;;;;;;;;;;19.58;95.16;101297.72;5084600;28;1010;-78
2023/09/29 08:49:21;;;;;;;;;;;;;;;19.61;94.81;101292.13;5085631;28;1244;-78
2023/09/29 08:51:47;;;;;;;;;;;;;;;19.70;94.34;101299.97;5085952;28;1893;-78
2023/09/29 08:54:13;;;;;;;;;;;;;;;19.74;94.05;101307.34;5089105;28;1253;-78
2023/09/29 08:56:39;;;;;;;;;;;;;;;19.76;94.02;101299.28;5083456;28;1512;-79
2023/09/29 08:59:04;;;;;;;;;;;;;;;19.78;94.21;101307.81;5080643;28;1089;-78
2023/09/29 09:01:30;;;;;;;;;;;;;;;19.82;94.30;101304.66;5078685;28;1317;-77
2023/09/29 09:03:55;;;;;;;;;;;;;;;19.89;94.19;101304.78;5077821;28;1195;-79
2023/09/29 09:06:22;;;;;;;;;;;;;;;19.96;94.20;101305.75;5084349;28;1098;-77
2023/09/29 09:08:48;;;;;;;;;;;;;;;20.00;93.53;101299.13;5091245;28;1012;-79
2023/09/29 09:11:13;;;;;;;;;;;;;;;20.07;93.42;101315.88;5082053;28;1905;-78
2023/09/29 09:13:38;;;;;;;;;;;;;;;20.06;93.14;101306.31;5081841;28;1090;-79
2023/09/29 09:16:04;;;;;;;;;;;;;;;20.10;92.68;101312.88;5087689;28;1173;-79
2023/09/29 09:18:29;;;;;;;;;;;;;;;20.12;92.48;101321.41;5085447;28;1442;-78
2023/09/29 09:20:55;;;;;;;;;;;;;;;20.11;92.72;101325.03;5088150;28;1340;-78
2023/09/29 09:23:20;;;;;;;;;;;;;;;20.15;92.32;101318.44;5083418;28;1360;-78
2023/09/29 09:25:45;;;;;;;;;;;;;;;20.16;92.40;101327.16;5085135;28;1255;-78
2023/09/29 09:28:17;;;;;;;;;;;;;;;20.15;92.12;101326.34;5081478;28;1371;-79
2023/09/29 09:30:43;;;;;;;;;;;;;;;20.14;92.43;101324.69;5088865;28;1949;-78
2023/09/29 09:33:16;;;;;;;;;;;;;;;20.16;92.39;101335.88;5085043;28;1257;-79
2023/09/29 09:35:42;;;;;;;;;;;;;;;20.24;92.13;101331.53;5081691;28;1535;-78
2023/09/29 09:38:07;;;;;;;;;;;;;;;20.26;92.11;101337.47;5080883;28;1263;-78
2023/09/29 09:40:33;;;;;;;;;;;;;;;20.28;91.56;101340.72;5083624;28;1191;-80
2023/09/29 09:43:03;;;;;;;;;;;;;;;20.30;91.79;101344.00;5088857;28;1203;-78
2023/09/29 09:45:43;;;;;;;;;;;;;;;20.32;92.00;101342.03;5087614;28;1246;-78
2023/09/29 09:48:09;;;;;;;;;;;;;;;20.39;91.47;101348.22;5084527;28;1242;-78
2023/09/29 09:50:36;;;;;;;;;;;;;;;20.45;91.86;101347.50;5089656;28;1963;-78
2023/09/29 09:53:02;;;;;;;;;;;;;;;20.58;91.32;101347.75;5084668;28;1385;-78
2023/09/29 09:55:35;;;;;;;;;;;;;;;20.59;90.95;101357.31;5090276;28;1354;-78
2023/09/29 09:58:10;;;;;;;;;;;;;;;20.65;89.87;101359.25;5082919;28;1250;-77
2023/09/29 10:00:36;;;;;;;;;;;;;;;20.54;90.24;101362.31;5086999;28;1186;-78
2023/09/29 10:03:04;;;;;;;;;;;;;;;20.50;90.47;101361.00;5089262;28;1446;-77
2023/09/29 10:05:32;;;;;;;;;;;;;;;20.49;90.60;101379.63;5079703;28;1373;-78
2023/09/29 10:08:02;;;;;;;;;;;;;;;20.50;90.26;101371.56;5084094;28;1418;-77
2023/09/29 10:10:32;;;;;;;;;;;;;;;20.45;90.51;101367.78;5085344;28;1922;-78
2023/09/29 10:13:00;;;;;;;;;;;;;;;20.45;90.46;101379.13;5081247;28;1282;-78
2023/09/29 10:15:29;;;;;;;;;;;;;;;20.32;90.72;101381.53;5086951;28;1274;-78
2023/09/29 10:18:12;;;;;;;;;;;;;;;20.26;91.23;101374.34;5094062;28;1198;-78
2023/09/29 10:20:37;;;;;;;;;;;;;;;20.27;91.28;101386.50;5085845;28;1213;-77
2023/09/29 10:23:03;;;;;;;;;;;;;;;20.16;91.45;101383.28;5098057;28;1150;-78
2023/09/29 10:25:28;;;;;;;;;;;;;;;20.13;91.91;101375.75;5083449;28;1322;-77
2023/09/29 10:28:00;;;;;;;;;;;;;;;20.14;92.22;101382.66;5083804;28;1104;-78
2023/09/29 10:30:26;;;;;;;;;;;;;;;20.17;92.16;101387.53;5080689;28;1894;-79
2023/09/29 10:33:01;;;;;;;;;;;;;;;20.24;92.17;101381.59;5084001;28;1324;-78
2023/09/29 10:35:27;;;;;;;;;;;;;;;20.23;92.04;101379.94;5074133;28;1487;-78
2023/09/29 10:37:55;;;;;;;;;;;;;;;20.26;92.45;101384.88;5081295;28;1235;-78
2023/09/29 10:40:27;;;;;;;;;;;;;;;20.29;92.33;101380.06;5082863;28;1094;-78
2023/09/29 10:42:54;;;;;;;;;;;;;;;20.32;92.45;101389.44;5085329;28;1215;-78
2023/09/29 10:45:28;;;;;;;;;;;;;;;20.32;92.63;101386.81;5086894;28;1597;-78
2023/09/29 10:47:59;;;;;;;;;;;;;;;20.35;92.78;101396.97;5088059;28;1305;-78
2023/09/29 10:50:24;;;;;;;;;;;;;;;20.35;92.60;101395.16;5086573;28;1922;-78
2023/09/29 10:52:49;;;;;;;;;;;;;;;20.37;92.91;101387.09;5083094;28;1279;-78
2023/09/29 10:55:14;;;;;;;;;;;;;;;20.42;92.99;101400.59;5086784;28;1444;-78
2023/09/29 10:57:42;;;;;;;;;;;;;;;20.48;92.51;101396.44;5087915;28;1259;-78
2023/09/29 11:00:09;;;;;;;;;;;;;;;20.51;92.47;101394.28;5083841;28;996;-79
2023/09/29 11:02:36;;;;;;;;;;;;;;;20.51;92.60;101404.81;5085310;28;1021;-79
2023/09/29 11:05:05;;;;;;;;;;;;;;;20.60;91.57;101401.13;5082629;28;1046;-78
2023/09/29 11:07:44;;;;;;;;;;;;;;;20.59;91.42;101410.03;5085135;28;1104;-78
2023/09/29 11:10:13;;;;;;;;;;;;;;;20.61;91.08;101405.41;5084062;28;2006;-78
2023/09/29 11:12:40;;;;;;;;;;;;;;;20.52;91.11;101416.97;5084483;28;1122;-78
2023/09/29 11:15:08;;;;;;;;;;;;;;;20.51;91.40;101417.97;5076717;28;1093;-78
2023/09/29 11:17:44;;;;;;;;;;;;;;;20.52;91.29;101416.97;5081011;28;1199;-79
2023/09/29 11:20:14;;;;;;;;;;;;;;;20.52;91.27;101406.44;5085023;28;1131;-79
2023/09/29 11:22:42;;;;;;;;;;;;;;;20.53;91.27;101408.09;5084465;28;969;-78
2023/09/29 11:25:15;;;;;;;;;;;;;;;20.52;91.23;101401.16;5087774;28;1583;-79
2023/09/29 11:27:47;;;;;;;;;;;;;;;20.55;91.15;101411.38;5088789;28;1255;-79
2023/09/29 11:30:13;;;;;;;;;;;;;;;20.54;91.25;101420.28;5074422;28;1909;-77
2023/09/29 11:32:38;;;;;;;;;;;;;;;20.54;91.28;101425.56;5081178;28;1138;-78
2023/09/29 11:35:13;;;;;;;;;;;;;;;20.51;91.33;101430.34;5083718;28;1273;-79
2023/09/29 11:37:38;;;;;;;;;;;;;;;20.44;91.34;101430.19;5089412;28;1071;-77
2023/09/29 11:40:11;;;;;;;;;;;;;;;20.40;91.59;101428.91;5083006;28;2244;-77
2023/09/29 11:42:36;;;;;;;;;;;;;;;20.39;91.79;101432.53;5091900;28;1119;-78
2023/09/29 11:45:07;;;;;;;;;;;;;;;20.37;91.69;101430.06;5097430;28;1233;-79
2023/09/29 11:47:33;;;;;;;;;;;;;;;20.35;92.20;101431.22;5086458;28;1204;-78
2023/09/29 11:49:58;;;;;;;;;;;;;;;20.34;92.59;101429.59;5093962;28;1890;-78
2023/09/29 11:52:23;;;;;;;;;;;;;;;20.38;92.38;101428.25;5091869;28;1920;-78
2023/09/29 11:54:49;;;;;;;;;;;;;;;20.34;92.30;101442.78;5081187;28;1312;-78
2023/09/29 11:57:14;;;;;;;;;;;;;;;20.33;93.01;101446.41;5091964;28;1325;-78
2023/09/29 11:59:40;;;;;;;;;;;;;;;20.18;93.49;101456.84;5091447;28;1089;-78
2023/09/29 12:02:05;;;;;;;;;;;;;;;20.02;94.79;101468.31;5078041;28;1256;-78
2023/09/29 12:04:30;;;;;;;;;;;;;;;19.92;95.31;101462.41;5089970;28;1183;-78
2023/09/29 12:06:55;;;;;;;;;;;;;;;19.89;95.10;101468.00;5083656;28;1191;-77
2023/09/29 12:09:22;;;;;;;;;;;;;;;19.81;96.09;101470.69;5090230;28;1153;-77
2023/09/29 12:11:47;;;;;;;;;;;;;;;19.80;97.02;101484.84;5084250;28;1906;-77
2023/09/29 12:14:12;;;;;;;;;;;;;;;19.76;100.00;101504.59;5090314;28;1159;-78
2023/09/29 12:16:38;;;;;;;;;;;;;;;19.70;98.49;101505.25;5088038;28;1218;-78
2023/09/29 12:19:03;;;;;;;;;;;;;;;19.61;98.39;101518.44;5086458;28;1266;-77
2023/09/29 12:21:28;;;;;;;;;;;;;;;19.54;98.57;101522.69;5082609;28;1290;-78
2023/09/29 12:23:54;;;;;;;;;;;;;;;19.30;98.70;101531.44;5085308;28;1480;-77
2023/09/29 12:26:19;;;;;;;;;;;;;;;19.24;99.65;101536.53;5095929;28;1158;-78
2023/09/29 12:28:47;;;;;;;;;;;;;;;19.01;99.74;101547.69;5106088;28;1010;-79
2023/09/29 12:31:13;;;;;;;;;;;;;;;18.91;99.75;101557.53;5108424;28;1929;-78
2023/09/29 12:33:38;;;;;;;;;;;;;;;18.74;100.00;101561.91;5096815;28;1081;-78
2023/09/29 12:36:04;;;;;;;;;;;;;;;18.52;100.00;101559.84;5109796;28;1165;-78
2023/09/29 12:38:29;;;;;;;;;;;;;;;18.38;100.00;101577.03;5108212;28;1203;-79
2023/09/29 12:40:54;;;;;;;;;;;;;;;18.28;100.00;101576.34;5106072;28;1009;-78
2023/09/29 12:43:19;;;;;;;;;;;;;;;18.24;100.00;101586.34;5111783;28;1175;-78